sensor_id;sensor_type;location;lat;lon;timestamp;P1;durP1;ratioP1;P2;durP2;ratioP2
45322;SDS011;31382;50.200;8.674;2023-04-02T00:07:31;3.40;;;1.77;;
45322;SDS011;31382;50.200;8.674;2023-04-02T00:12:33;1.80;;;1.17;;
45322;SDS011;31382;50.200;8.674;2023-04-02T00:17:34;2.33;;;1.25;;
45322;SDS011;31382;50.200;8.674;2023-04-02T00:22:36;1.65;;;1.00;;
45322;SDS011;31382;50.200;8.674;2023-04-02T00:27:44;1.38;;;0.95;;
45322;SDS011;31382;50.200;8.674;2023-04-02T00:32:46;2.10;;;0.70;;
45322;SDS011;31382;50.200;8.674;2023-04-02T00:37:48;1.38;;;0.90;;
45322;SDS011;31382;50.200;8.674;2023-04-02T00:42:51;1.15;;;0.85;;
45322;SDS011;31382;50.200;8.674;2023-04-02T00:47:55;1.98;;;0.80;;
45322;SDS011;31382;50.200;8.674;2023-04-02T00:52:58;1.33;;;0.90;;
45322;SDS011;31382;50.200;8.674;2023-04-02T00:58:41;4.88;;;0.85;;
45322;SDS011;31382;50.200;8.674;2023-04-02T01:03:36;1.48;;;0.90;;
45322;SDS011;31382;50.200;8.674;2023-04-02T01:14:08;2.20;;;1.25;;
45322;SDS011;31382;50.200;8.674;2023-04-02T01:24:37;3.20;;;1.48;;
45322;SDS011;31382;50.200;8.674;2023-04-02T01:29:41;2.63;;;1.23;;
45322;SDS011;31382;50.200;8.674;2023-04-02T01:34:47;2.13;;;1.25;;
45322;SDS011;31382;50.200;8.674;2023-04-02T01:39:54;2.63;;;1.40;;
45322;SDS011;31382;50.200;8.674;2023-04-02T01:45:04;3.30;;;1.17;;
45322;SDS011;31382;50.200;8.674;2023-04-02T01:55:28;3.17;;;1.10;;
45322;SDS011;31382;50.200;8.674;2023-04-02T02:00:31;5.38;;;1.20;;
45322;SDS011;31382;50.200;8.674;2023-04-02T02:05:36;2.95;;;1.20;;
45322;SDS011;31382;50.200;8.674;2023-04-02T02:10:38;2.60;;;1.13;;
45322;SDS011;31382;50.200;8.674;2023-04-02T02:15:39;2.00;;;1.10;;
45322;SDS011;31382;50.200;8.674;2023-04-02T02:20:41;1.83;;;1.05;;
45322;SDS011;31382;50.200;8.674;2023-04-02T02:25:42;3.30;;;1.33;;
45322;SDS011;31382;50.200;8.674;2023-04-02T02:30:48;2.00;;;1.30;;
45322;SDS011;31382;50.200;8.674;2023-04-02T02:35:54;3.27;;;1.50;;
45322;SDS011;31382;50.200;8.674;2023-04-02T02:41:03;7.20;;;1.55;;
45322;SDS011;31382;50.200;8.674;2023-04-02T02:46:09;3.45;;;1.25;;
45322;SDS011;31382;50.200;8.674;2023-04-02T02:51:19;2.60;;;1.65;;
45322;SDS011;31382;50.200;8.674;2023-04-02T02:56:26;3.05;;;1.73;;
45322;SDS011;31382;50.200;8.674;2023-04-02T03:01:30;3.28;;;1.30;;
45322;SDS011;31382;50.200;8.674;2023-04-02T03:06:32;2.65;;;1.52;;
45322;SDS011;31382;50.200;8.674;2023-04-02T03:11:48;3.95;;;2.25;;
45322;SDS011;31382;50.200;8.674;2023-04-02T03:16:59;6.97;;;2.42;;
45322;SDS011;31382;50.200;8.674;2023-04-02T03:22:20;5.97;;;2.38;;
45322;SDS011;31382;50.200;8.674;2023-04-02T03:27:34;5.88;;;2.55;;
45322;SDS011;31382;50.200;8.674;2023-04-02T03:32:41;5.47;;;3.08;;
45322;SDS011;31382;50.200;8.674;2023-04-02T03:37:49;9.40;;;3.72;;
45322;SDS011;31382;50.200;8.674;2023-04-02T03:43:00;6.72;;;3.78;;
45322;SDS011;31382;50.200;8.674;2023-04-02T03:48:11;9.13;;;4.72;;
45322;SDS011;31382;50.200;8.674;2023-04-02T03:53:21;6.90;;;4.07;;
45322;SDS011;31382;50.200;8.674;2023-04-02T03:58:29;5.47;;;3.85;;
45322;SDS011;31382;50.200;8.674;2023-04-02T04:03:52;7.45;;;4.28;;
45322;SDS011;31382;50.200;8.674;2023-04-02T04:14:33;10.45;;;4.82;;
45322;SDS011;31382;50.200;8.674;2023-04-02T04:19:41;7.13;;;4.82;;
45322;SDS011;31382;50.200;8.674;2023-04-02T04:24:46;11.50;;;4.88;;
45322;SDS011;31382;50.200;8.674;2023-04-02T04:29:58;9.68;;;5.15;;
45322;SDS011;31382;50.200;8.674;2023-04-02T04:40:22;10.93;;;5.05;;
45322;SDS011;31382;50.200;8.674;2023-04-02T04:50:54;11.50;;;6.20;;
45322;SDS011;31382;50.200;8.674;2023-04-02T04:56:02;8.52;;;5.15;;
45322;SDS011;31382;50.200;8.674;2023-04-02T05:23:26;4.55;;;2.20;;
45322;SDS011;31382;50.200;8.674;2023-04-02T05:28:38;3.67;;;1.50;;
45322;SDS011;31382;50.200;8.674;2023-04-02T05:34:01;3.55;;;2.30;;
45322;SDS011;31382;50.200;8.674;2023-04-02T05:39:04;5.15;;;1.30;;
45322;SDS011;31382;50.200;8.674;2023-04-02T05:44:11;2.10;;;1.30;;
45322;SDS011;31382;50.200;8.674;2023-04-02T05:49:32;3.30;;;1.60;;
45322;SDS011;31382;50.200;8.674;2023-04-02T05:54:51;4.25;;;2.60;;
45322;SDS011;31382;50.200;8.674;2023-04-02T05:59:59;2.73;;;0.70;;
45322;SDS011;31382;50.200;8.674;2023-04-02T06:05:14;0.40;;;0.20;;
45322;SDS011;31382;50.200;8.674;2023-04-02T06:10:18;2.08;;;0.10;;
45322;SDS011;31382;50.200;8.674;2023-04-02T06:15:25;0.95;;;0.10;;
45322;SDS011;31382;50.200;8.674;2023-04-02T06:20:26;1.75;;;0.10;;
45322;SDS011;31382;50.200;8.674;2023-04-02T06:25:36;0.10;;;0.10;;
45322;SDS011;31382;50.200;8.674;2023-04-02T06:30:48;0.20;;;0.10;;
45322;SDS011;31382;50.200;8.674;2023-04-02T06:35:52;0.20;;;0.10;;
45322;SDS011;31382;50.200;8.674;2023-04-02T06:40:59;0.47;;;0.13;;
45322;SDS011;31382;50.200;8.674;2023-04-02T06:46:06;0.20;;;0.10;;
45322;SDS011;31382;50.200;8.674;2023-04-02T06:51:16;0.50;;;0.13;;
45322;SDS011;31382;50.200;8.674;2023-04-02T06:56:25;0.40;;;0.20;;
45322;SDS011;31382;50.200;8.674;2023-04-02T07:01:29;1.00;;;0.10;;
45322;SDS011;31382;50.200;8.674;2023-04-02T07:06:33;0.35;;;0.10;;
45322;SDS011;31382;50.200;8.674;2023-04-02T07:11:35;0.20;;;0.15;;
45322;SDS011;31382;50.200;8.674;2023-04-02T07:16:36;0.20;;;0.10;;
45322;SDS011;31382;50.200;8.674;2023-04-02T07:21:38;0.20;;;0.15;;
45322;SDS011;31382;50.200;8.674;2023-04-02T07:26:39;0.20;;;0.10;;
45322;SDS011;31382;50.200;8.674;2023-04-02T07:31:42;0.32;;;0.32;;
45322;SDS011;31382;50.200;8.674;2023-04-02T07:36:44;0.20;;;0.03;;
45322;SDS011;31382;50.200;8.674;2023-04-02T07:41:55;1.42;;;0.10;;
45322;SDS011;31382;50.200;8.674;2023-04-02T07:46:58;0.30;;;0.15;;
45322;SDS011;31382;50.200;8.674;2023-04-02T07:51:59;0.20;;;0.10;;
45322;SDS011;31382;50.200;8.674;2023-04-02T07:57:01;0.10;;;0.10;;
45322;SDS011;31382;50.200;8.674;2023-04-02T08:02:02;0.10;;;0.10;;
45322;SDS011;31382;50.200;8.674;2023-04-02T08:07:04;0.15;;;0.15;;
45322;SDS011;31382;50.200;8.674;2023-04-02T08:12:06;0.30;;;0.20;;
45322;SDS011;31382;50.200;8.674;2023-04-02T08:17:07;0.32;;;0.20;;
45322;SDS011;31382;50.200;8.674;2023-04-02T08:22:09;0.82;;;0.30;;
45322;SDS011;31382;50.200;8.674;2023-04-02T08:27:14;0.40;;;0.20;;
45322;SDS011;31382;50.200;8.674;2023-04-02T08:32:16;0.95;;;0.20;;
45322;SDS011;31382;50.200;8.674;2023-04-02T08:37:17;0.40;;;0.20;;
45322;SDS011;31382;50.200;8.674;2023-04-02T08:47:34;0.50;;;0.20;;
45322;SDS011;31382;50.200;8.674;2023-04-02T08:52:40;0.28;;;0.20;;
45322;SDS011;31382;50.200;8.674;2023-04-02T08:58:01;1.55;;;0.20;;
45322;SDS011;31382;50.200;8.674;2023-04-02T09:03:40;0.45;;;0.22;;
45322;SDS011;31382;50.200;8.674;2023-04-02T09:08:46;0.70;;;0.30;;
45322;SDS011;31382;50.200;8.674;2023-04-02T09:13:55;0.60;;;0.30;;
45322;SDS011;31382;50.200;8.674;2023-04-02T09:18:58;0.40;;;0.30;;
45322;SDS011;31382;50.200;8.674;2023-04-02T09:24:01;0.65;;;0.50;;
45322;SDS011;31382;50.200;8.674;2023-04-02T09:34:25;0.47;;;0.35;;
45322;SDS011;31382;50.200;8.674;2023-04-02T09:39:29;0.37;;;0.27;;
45322;SDS011;31382;50.200;8.674;2023-04-02T09:44:31;0.60;;;0.20;;
45322;SDS011;31382;50.200;8.674;2023-04-02T09:49:34;0.55;;;0.30;;
45322;SDS011;31382;50.200;8.674;2023-04-02T09:54:37;0.82;;;0.40;;
45322;SDS011;31382;50.200;8.674;2023-04-02T09:59:42;1.35;;;0.65;;
45322;SDS011;31382;50.200;8.674;2023-04-02T10:04:44;0.77;;;0.30;;
45322;SDS011;31382;50.200;8.674;2023-04-02T10:09:55;1.23;;;0.40;;
45322;SDS011;31382;50.200;8.674;2023-04-02T10:14:58;0.35;;;0.30;;
45322;SDS011;31382;50.200;8.674;2023-04-02T10:20:18;0.50;;;0.38;;
45322;SDS011;31382;50.200;8.674;2023-04-02T10:25:25;0.20;;;0.20;;
45322;SDS011;31382;50.200;8.674;2023-04-02T10:30:39;1.20;;;0.28;;
45322;SDS011;31382;50.200;8.674;2023-04-02T10:41:38;0.30;;;0.25;;
45322;SDS011;31382;50.200;8.674;2023-04-02T10:46:56;0.38;;;0.20;;
45322;SDS011;31382;50.200;8.674;2023-04-02T10:52:10;0.80;;;0.30;;
45322;SDS011;31382;50.200;8.674;2023-04-02T11:13:51;2.03;;;0.60;;
45322;SDS011;31382;50.200;8.674;2023-04-02T11:19:41;0.73;;;0.57;;
45322;SDS011;31382;50.200;8.674;2023-04-02T11:29:33;1.52;;;0.70;;
45322;SDS011;31382;50.200;8.674;2023-04-02T11:34:57;1.02;;;0.80;;
45322;SDS011;31382;50.200;8.674;2023-04-02T11:55:41;1.23;;;0.60;;
45322;SDS011;31382;50.200;8.674;2023-04-02T12:11:08;1.23;;;0.80;;
45322;SDS011;31382;50.200;8.674;2023-04-02T12:16:10;1.15;;;0.70;;
45322;SDS011;31382;50.200;8.674;2023-04-02T12:21:14;2.30;;;0.80;;
45322;SDS011;31382;50.200;8.674;2023-04-02T12:26:25;1.77;;;0.90;;
45322;SDS011;31382;50.200;8.674;2023-04-02T12:31:30;1.55;;;0.80;;
45322;SDS011;31382;50.200;8.674;2023-04-02T12:36:33;1.42;;;0.88;;
45322;SDS011;31382;50.200;8.674;2023-04-02T12:41:36;1.30;;;0.80;;
45322;SDS011;31382;50.200;8.674;2023-04-02T12:46:38;1.60;;;0.80;;
45322;SDS011;31382;50.200;8.674;2023-04-02T12:51:40;1.58;;;0.80;;
45322;SDS011;31382;50.200;8.674;2023-04-02T12:56:43;7.03;;;1.02;;
45322;SDS011;31382;50.200;8.674;2023-04-02T13:01:54;2.08;;;1.08;;
45322;SDS011;31382;50.200;8.674;2023-04-02T13:06:57;1.45;;;1.08;;
45322;SDS011;31382;50.200;8.674;2023-04-02T13:11:59;1.83;;;1.20;;
45322;SDS011;31382;50.200;8.674;2023-04-02T13:17:01;3.60;;;1.60;;
45322;SDS011;31382;50.200;8.674;2023-04-02T13:22:02;1.63;;;0.93;;
45322;SDS011;31382;50.200;8.674;2023-04-02T13:27:24;3.63;;;1.27;;
45322;SDS011;31382;50.200;8.674;2023-04-02T13:32:25;3.15;;;2.13;;
45322;SDS011;31382;50.200;8.674;2023-04-02T13:37:27;3.90;;;2.28;;
45322;SDS011;31382;50.200;8.674;2023-04-02T13:42:29;4.30;;;2.47;;
45322;SDS011;31382;50.200;8.674;2023-04-02T13:47:30;5.40;;;2.00;;
45322;SDS011;31382;50.200;8.674;2023-04-02T13:52:32;2.85;;;1.77;;
45322;SDS011;31382;50.200;8.674;2023-04-02T13:57:33;4.05;;;1.90;;
45322;SDS011;31382;50.200;8.674;2023-04-02T14:02:36;4.38;;;2.10;;
45322;SDS011;31382;50.200;8.674;2023-04-02T14:13:01;2.55;;;1.73;;
45322;SDS011;31382;50.200;8.674;2023-04-02T14:23:35;3.85;;;1.48;;
45322;SDS011;31382;50.200;8.674;2023-04-02T14:29:02;2.97;;;0.98;;
45322;SDS011;31382;50.200;8.674;2023-04-02T14:34:30;2.07;;;1.10;;
45322;SDS011;31382;50.200;8.674;2023-04-02T14:45:27;2.78;;;1.40;;
45322;SDS011;31382;50.200;8.674;2023-04-02T14:50:37;2.17;;;1.30;;
45322;SDS011;31382;50.200;8.674;2023-04-02T14:55:43;1.77;;;0.90;;
45322;SDS011;31382;50.200;8.674;2023-04-02T15:00:58;2.03;;;0.77;;
45322;SDS011;31382;50.200;8.674;2023-04-02T15:06:05;1.63;;;0.77;;
45322;SDS011;31382;50.200;8.674;2023-04-02T15:16:17;4.75;;;1.30;;
45322;SDS011;31382;50.200;8.674;2023-04-02T15:31:41;3.95;;;2.15;;
45322;SDS011;31382;50.200;8.674;2023-04-02T15:42:19;1.75;;;1.02;;
45322;SDS011;31382;50.200;8.674;2023-04-02T15:47:27;4.13;;;1.10;;
45322;SDS011;31382;50.200;8.674;2023-04-02T15:52:56;3.38;;;1.20;;
45322;SDS011;31382;50.200;8.674;2023-04-02T15:58:23;2.03;;;1.42;;
45322;SDS011;31382;50.200;8.674;2023-04-02T16:04:14;3.40;;;1.58;;
45322;SDS011;31382;50.200;8.674;2023-04-02T16:09:26;1.73;;;1.10;;
45322;SDS011;31382;50.200;8.674;2023-04-02T16:14:30;3.28;;;2.22;;
45322;SDS011;31382;50.200;8.674;2023-04-02T16:20:09;4.32;;;1.17;;
45322;SDS011;31382;50.200;8.674;2023-04-02T16:25:17;1.90;;;1.40;;
45322;SDS011;31382;50.200;8.674;2023-04-02T16:51:56;3.30;;;1.67;;
45322;SDS011;31382;50.200;8.674;2023-04-02T17:02:28;2.35;;;1.85;;
45322;SDS011;31382;50.200;8.674;2023-04-02T17:12:58;2.17;;;1.83;;
45322;SDS011;31382;50.200;8.674;2023-04-02T17:18:20;2.10;;;1.50;;
45322;SDS011;31382;50.200;8.674;2023-04-02T17:23:24;4.22;;;1.90;;
45322;SDS011;31382;50.200;8.674;2023-04-02T17:28:29;3.15;;;2.08;;
45322;SDS011;31382;50.200;8.674;2023-04-02T17:33:37;3.10;;;2.50;;
45322;SDS011;31382;50.200;8.674;2023-04-02T17:38:39;5.95;;;1.98;;
45322;SDS011;31382;50.200;8.674;2023-04-02T17:44:40;2.47;;;1.42;;
45322;SDS011;31382;50.200;8.674;2023-04-02T17:49:35;3.20;;;1.27;;
45322;SDS011;31382;50.200;8.674;2023-04-02T17:54:56;2.75;;;1.50;;
45322;SDS011;31382;50.200;8.674;2023-04-02T18:06:07;3.40;;;1.35;;
45322;SDS011;31382;50.200;8.674;2023-04-02T18:32:47;3.60;;;1.98;;
45322;SDS011;31382;50.200;8.674;2023-04-02T18:43:23;2.45;;;1.40;;
45322;SDS011;31382;50.200;8.674;2023-04-02T18:48:46;5.93;;;2.15;;
45322;SDS011;31382;50.200;8.674;2023-04-02T18:59:31;2.63;;;1.20;;
45322;SDS011;31382;50.200;8.674;2023-04-02T19:04:38;1.73;;;1.13;;
45322;SDS011;31382;50.200;8.674;2023-04-02T19:09:44;1.92;;;1.08;;
45322;SDS011;31382;50.200;8.674;2023-04-02T19:14:52;3.25;;;1.50;;
45322;SDS011;31382;50.200;8.674;2023-04-02T19:20:11;2.33;;;0.85;;
45322;SDS011;31382;50.200;8.674;2023-04-02T19:36:09;2.60;;;0.88;;
45322;SDS011;31382;50.200;8.674;2023-04-02T19:41:39;0.88;;;0.50;;
45322;SDS011;31382;50.200;8.674;2023-04-02T19:46:48;3.72;;;0.85;;
45322;SDS011;31382;50.200;8.674;2023-04-02T19:51:51;1.98;;;0.57;;
45322;SDS011;31382;50.200;8.674;2023-04-02T19:56:53;2.10;;;0.80;;
45322;SDS011;31382;50.200;8.674;2023-04-02T20:01:55;1.55;;;0.80;;
45322;SDS011;31382;50.200;8.674;2023-04-02T20:06:58;4.00;;;0.70;;
45322;SDS011;31382;50.200;8.674;2023-04-02T20:12:01;2.13;;;1.23;;
45322;SDS011;31382;50.200;8.674;2023-04-02T20:17:03;1.67;;;0.80;;
45322;SDS011;31382;50.200;8.674;2023-04-02T20:22:05;4.47;;;0.95;;
45322;SDS011;31382;50.200;8.674;2023-04-02T20:27:06;1.75;;;0.98;;
45322;SDS011;31382;50.200;8.674;2023-04-02T20:32:08;4.68;;;1.33;;
45322;SDS011;31382;50.200;8.674;2023-04-02T20:37:10;1.30;;;0.90;;
45322;SDS011;31382;50.200;8.674;2023-04-02T20:42:12;1.55;;;0.77;;
45322;SDS011;31382;50.200;8.674;2023-04-02T20:47:14;2.63;;;0.80;;
45322;SDS011;31382;50.200;8.674;2023-04-02T20:52:16;2.00;;;0.90;;
45322;SDS011;31382;50.200;8.674;2023-04-02T20:57:17;1.30;;;0.68;;
45322;SDS011;31382;50.200;8.674;2023-04-02T21:02:21;1.40;;;0.82;;
45322;SDS011;31382;50.200;8.674;2023-04-02T21:07:23;3.25;;;0.80;;
45322;SDS011;31382;50.200;8.674;2023-04-02T21:12:24;4.15;;;0.93;;
45322;SDS011;31382;50.200;8.674;2023-04-02T21:17:26;2.03;;;0.80;;
45322;SDS011;31382;50.200;8.674;2023-04-02T21:22:27;2.55;;;1.17;;
45322;SDS011;31382;50.200;8.674;2023-04-02T21:27:29;3.55;;;0.90;;
45322;SDS011;31382;50.200;8.674;2023-04-02T21:32:31;2.83;;;0.80;;
45322;SDS011;31382;50.200;8.674;2023-04-02T21:37:35;2.72;;;0.50;;
45322;SDS011;31382;50.200;8.674;2023-04-02T21:42:37;1.15;;;0.70;;
45322;SDS011;31382;50.200;8.674;2023-04-02T21:47:38;1.80;;;0.82;;
45322;SDS011;31382;50.200;8.674;2023-04-02T21:52:40;1.52;;;0.70;;
45322;SDS011;31382;50.200;8.674;2023-04-02T21:57:41;2.28;;;0.57;;
45322;SDS011;31382;50.200;8.674;2023-04-02T22:02:42;1.45;;;0.70;;
45322;SDS011;31382;50.200;8.674;2023-04-02T22:07:44;2.53;;;0.85;;
45322;SDS011;31382;50.200;8.674;2023-04-02T22:12:46;2.40;;;0.50;;
45322;SDS011;31382;50.200;8.674;2023-04-02T22:17:47;0.80;;;0.60;;
45322;SDS011;31382;50.200;8.674;2023-04-02T22:22:49;3.45;;;0.82;;
45322;SDS011;31382;50.200;8.674;2023-04-02T22:27:51;4.15;;;0.55;;
45322;SDS011;31382;50.200;8.674;2023-04-02T22:32:52;1.35;;;0.60;;
45322;SDS011;31382;50.200;8.674;2023-04-02T22:37:54;2.67;;;0.60;;
45322;SDS011;31382;50.200;8.674;2023-04-02T22:42:55;2.97;;;0.70;;
45322;SDS011;31382;50.200;8.674;2023-04-02T22:47:57;1.08;;;0.50;;
45322;SDS011;31382;50.200;8.674;2023-04-02T22:52:58;1.15;;;0.70;;
45322;SDS011;31382;50.200;8.674;2023-04-02T22:58:00;2.65;;;0.50;;
45322;SDS011;31382;50.200;8.674;2023-04-02T23:03:01;2.63;;;0.52;;
45322;SDS011;31382;50.200;8.674;2023-04-02T23:08:03;1.08;;;0.50;;
45322;SDS011;31382;50.200;8.674;2023-04-02T23:13:05;1.73;;;0.70;;
45322;SDS011;31382;50.200;8.674;2023-04-02T23:18:07;1.38;;;0.57;;
45322;SDS011;31382;50.200;8.674;2023-04-02T23:23:08;2.17;;;0.45;;
45322;SDS011;31382;50.200;8.674;2023-04-02T23:28:10;1.02;;;0.47;;
45322;SDS011;31382;50.200;8.674;2023-04-02T23:33:13;1.10;;;0.50;;
45322;SDS011;31382;50.200;8.674;2023-04-02T23:38:14;3.15;;;0.55;;
45322;SDS011;31382;50.200;8.674;2023-04-02T23:43:16;2.50;;;0.40;;
45322;SDS011;31382;50.200;8.674;2023-04-02T23:48:17;0.90;;;0.30;;
45322;SDS011;31382;50.200;8.674;2023-04-02T23:53:19;1.20;;;0.43;;
45322;SDS011;31382;50.200;8.674;2023-04-02T23:58:20;1.95;;;0.55;;
